createdAt,value
2023-05-10T00:01:30.686Z,100687.23
2023-05-10T00:03:58.076Z,100687.45
2023-05-10T00:06:25.406Z,100688.91
2023-05-10T00:08:52.680Z,100685.35
2023-05-10T00:11:21.639Z,100685.58
2023-05-10T00:13:50.608Z,100686.20
2023-05-10T00:16:18.055Z,100685.23
2023-05-10T00:18:45.417Z,100684.44
2023-05-10T00:21:12.656Z,100680.61
2023-05-10T00:23:40.002Z,100680.79
2023-05-10T00:26:07.450Z,100681.02
2023-05-10T00:28:34.700Z,100680.89
2023-05-10T00:31:02.022Z,100679.46
2023-05-10T00:33:30.829Z,100677.52
2023-05-10T00:35:58.145Z,100678.26
2023-05-10T00:38:25.876Z,100677.67
2023-05-10T00:40:53.171Z,100677.52
2023-05-10T00:43:26.154Z,100675.10
2023-05-10T00:45:54.180Z,100675.78
2023-05-10T00:48:22.441Z,100681.45
2023-05-10T00:50:50.078Z,100680.89
2023-05-10T00:53:17.989Z,100682.24
2023-05-10T00:55:45.264Z,100680.33
2023-05-10T00:58:13.518Z,100681.32
2023-05-10T01:00:45.185Z,100680.02
2023-05-10T01:03:15.644Z,100681.05
2023-05-10T01:05:42.923Z,100680.64
2023-05-10T01:08:10.217Z,100678.76
2023-05-10T01:10:37.516Z,100680.35
2023-05-10T01:13:04.893Z,100677.86
2023-05-10T01:15:33.037Z,100679.38
2023-05-10T01:18:01.638Z,100671.63
2023-05-10T01:20:36.711Z,100676.61
2023-05-10T01:23:34.010Z,100670.64
2023-05-10T01:26:33.625Z,100673.03
2023-05-10T01:29:39.871Z,100669.91
2023-05-10T01:32:23.021Z,100672.33
2023-05-10T01:35:09.464Z,100673.90
2023-05-10T01:37:42.942Z,100671.73
2023-05-10T01:40:48.910Z,100671.82
2023-05-10T01:43:24.486Z,100673.25
2023-05-10T01:46:05.957Z,100672.27
2023-05-10T01:48:34.829Z,100673.05
2023-05-10T01:51:02.497Z,100672.66
2023-05-10T01:53:32.289Z,100670.11
2023-05-10T01:56:01.693Z,100669.56
2023-05-10T01:58:32.923Z,100669.50
2023-05-10T02:01:04.591Z,100669.29
2023-05-10T02:03:33.585Z,100665.73
2023-05-10T02:06:01.352Z,100663.23
2023-05-10T02:08:29.514Z,100665.23
2023-05-10T02:10:59.898Z,100663.98
2023-05-10T02:13:31.374Z,100659.90
2023-05-10T02:16:00.609Z,100659.42
2023-05-10T02:18:28.924Z,100661.02
2023-05-10T02:20:57.835Z,100661.70
2023-05-10T02:23:26.329Z,100660.41
2023-05-10T02:25:56.150Z,100659.03
2023-05-10T02:28:26.406Z,100658.29
2023-05-10T02:30:55.495Z,100658.73
2023-05-10T02:33:25.773Z,100660.67
2023-05-10T02:35:53.792Z,100662.48
2023-05-10T02:38:23.142Z,100660.56
2023-05-10T02:40:52.577Z,100661.23
2023-05-10T02:43:23.814Z,100660.73
2023-05-10T02:45:51.194Z,100657.88
2023-05-10T02:48:19.064Z,100662.23
2023-05-10T02:50:48.056Z,100664.30
2023-05-10T02:53:24.222Z,100663.98
2023-05-10T02:55:57.967Z,100663.84
2023-05-10T02:58:25.495Z,100665.77
2023-05-10T03:00:52.772Z,100668.95
2023-05-10T03:03:21.314Z,100667.92
2023-05-10T03:05:50.054Z,100670.10
2023-05-10T03:08:17.483Z,100666.62
2023-05-10T03:10:58.004Z,100665.61
2023-05-10T03:13:33.955Z,100666.52
2023-05-10T03:16:10.470Z,100670.16
2023-05-10T03:19:03.092Z,100673.93
2023-05-10T03:21:31.460Z,100673.77
2023-05-10T03:24:09.412Z,100673.02
2023-05-10T03:26:40.162Z,100672.59
2023-05-10T03:29:11.740Z,100675.67
2023-05-10T03:31:40.133Z,100675.45
2023-05-10T03:34:08.281Z,100673.22
2023-05-10T03:36:35.688Z,100671.91
2023-05-10T03:39:03.693Z,100668.38
2023-05-10T03:41:31.670Z,100668.25
2023-05-10T03:43:58.937Z,100671.08
2023-05-10T03:46:26.371Z,100668.96
2023-05-10T03:48:53.694Z,100673.89
2023-05-10T03:51:21.724Z,100675.36
2023-05-10T03:53:52.473Z,100675.67
2023-05-10T03:56:21.994Z,100675.03
2023-05-10T03:58:49.526Z,100675.88
2023-05-10T04:01:16.972Z,100673.00
2023-05-10T04:03:44.331Z,100665.77
2023-05-10T04:06:13.405Z,100661.44
2023-05-10T04:08:40.673Z,100664.27
2023-05-10T04:11:09.506Z,100663.38
2023-05-10T04:13:37.307Z,100665.89
2023-05-10T04:16:05.154Z,100664.89
2023-05-10T04:18:33.132Z,100666.36
2023-05-10T04:21:00.490Z,100662.12
2023-05-10T04:23:28.911Z,100665.72
2023-05-10T04:26:03.397Z,100663.09
2023-05-10T04:28:30.742Z,100659.40
2023-05-10T04:31:09.713Z,100657.42
2023-05-10T04:33:37.758Z,100657.61
2023-05-10T04:36:05.672Z,100657.94
2023-05-10T04:38:33.014Z,100655.59
2023-05-10T04:41:09.015Z,100653.30
2023-05-10T04:43:37.469Z,100652.13
2023-05-10T04:46:05.958Z,100654.85
2023-05-10T04:48:33.166Z,100650.85
2023-05-10T04:51:00.546Z,100651.49
2023-05-10T04:53:28.000Z,100648.84
2023-05-10T04:55:55.279Z,100645.80
2023-05-10T04:58:23.858Z,100647.90
2023-05-10T05:00:51.215Z,100646.58
2023-05-10T05:03:18.500Z,100644.50
2023-05-10T05:05:46.216Z,100648.55
2023-05-10T05:08:14.239Z,100653.64
2023-05-10T05:10:41.497Z,100653.60
2023-05-10T05:13:08.795Z,100654.59
2023-05-10T05:15:36.106Z,100655.69
2023-05-10T05:18:03.418Z,100648.58
2023-05-10T05:20:34.322Z,100646.63
2023-05-10T05:23:02.234Z,100644.73
2023-05-10T05:25:29.685Z,100646.58
2023-05-10T05:27:56.982Z,100641.30
2023-05-10T05:30:24.437Z,100640.73
2023-05-10T05:32:51.762Z,100645.13
2023-05-10T05:35:19.621Z,100639.61
2023-05-10T05:37:47.143Z,100641.63
2023-05-10T05:40:15.341Z,100639.45
2023-05-10T05:42:42.699Z,100630.86
2023-05-10T05:45:14.715Z,100633.67
2023-05-10T05:47:42.524Z,100631.77
2023-05-10T05:50:10.618Z,100633.09
2023-05-10T05:52:38.037Z,100630.98
2023-05-10T05:55:05.703Z,100631.21
2023-05-10T05:57:33.078Z,100631.67
2023-05-10T06:00:00.939Z,100630.27
2023-05-10T06:02:28.273Z,100630.39
2023-05-10T06:04:55.822Z,100633.43
2023-05-10T06:07:23.201Z,100635.02
2023-05-10T06:09:50.668Z,100634.97
2023-05-10T06:12:18.000Z,100636.13
2023-05-10T06:14:45.161Z,100631.95
2023-05-10T06:17:12.274Z,100631.09
2023-05-10T06:19:39.848Z,100631.90
2023-05-10T06:22:06.879Z,100630.66
2023-05-10T06:24:34.008Z,100630.48
2023-05-10T06:27:01.614Z,100631.19
2023-05-10T06:29:28.849Z,100627.48
2023-05-10T06:31:55.964Z,100631.30
2023-05-10T06:34:23.163Z,100629.95
2023-05-10T06:36:50.244Z,100629.52
2023-05-10T06:39:17.377Z,100628.16
2023-05-10T06:41:44.481Z,100625.27
2023-05-10T06:44:11.778Z,100627.98
2023-05-10T06:46:38.925Z,100631.11
2023-05-10T06:49:06.101Z,100633.13
2023-05-10T06:51:34.067Z,100629.58
2023-05-10T06:54:01.335Z,100630.75
2023-05-10T06:56:28.490Z,100625.48
2023-05-10T06:58:55.542Z,100622.34
2023-05-10T07:01:22.761Z,100623.63
2023-05-10T07:03:50.093Z,100621.14
2023-05-10T07:06:29.323Z,100615.48
2023-05-10T07:09:00.089Z,100619.46
2023-05-10T07:11:28.046Z,100620.55
2023-05-10T07:13:55.045Z,100615.73
2023-05-10T07:16:22.971Z,100614.86
2023-05-10T07:18:51.688Z,100612.70
2023-05-10T07:21:18.801Z,100613.03
2023-05-10T07:23:45.948Z,100612.56
2023-05-10T07:26:13.013Z,100612.74
2023-05-10T07:28:40.213Z,100619.66
2023-05-10T07:31:07.307Z,100612.12
2023-05-10T07:33:34.528Z,100621.59
2023-05-10T07:36:01.622Z,100621.45
2023-05-10T07:38:28.724Z,100624.79
2023-05-10T07:40:55.988Z,100628.68
2023-05-10T07:43:23.456Z,100628.39
2023-05-10T07:45:50.703Z,100628.15
2023-05-10T07:48:17.879Z,100626.35
2023-05-10T07:50:45.040Z,100626.21
2023-05-10T07:53:12.101Z,100627.85
2023-05-10T07:55:39.388Z,100629.67
2023-05-10T07:58:06.465Z,100625.88
2023-05-10T08:00:33.700Z,100624.77
2023-05-10T08:03:01.181Z,100622.65
2023-05-10T08:05:28.544Z,100625.06
2023-05-10T08:07:55.734Z,100619.80
2023-05-10T08:10:23.021Z,100624.74
2023-05-10T08:12:50.112Z,100619.54
2023-05-10T08:15:17.518Z,100621.05
2023-05-10T08:17:44.926Z,100620.77
2023-05-10T08:20:14.030Z,100618.55
2023-05-10T08:22:41.193Z,100613.64
2023-05-10T08:25:08.738Z,100608.71
2023-05-10T08:27:35.834Z,100603.15
2023-05-10T08:30:03.110Z,100601.58
2023-05-10T08:32:30.224Z,100595.48
2023-05-10T08:34:57.445Z,100593.92
2023-05-10T08:37:25.452Z,100596.98
2023-05-10T08:39:52.653Z,100597.18
2023-05-10T08:42:27.088Z,100595.02
2023-05-10T08:44:55.650Z,100595.77
2023-05-10T08:47:23.258Z,100592.49
2023-05-10T08:49:52.353Z,100592.65
2023-05-10T08:52:19.966Z,100593.41
2023-05-10T08:54:47.938Z,100593.98
2023-05-10T08:57:15.234Z,100600.05
2023-05-10T08:59:42.299Z,100602.92
2023-05-10T09:02:12.657Z,100606.84
2023-05-10T09:04:39.929Z,100608.07
2023-05-10T09:07:08.500Z,100615.96
2023-05-10T09:09:36.623Z,100621.87
2023-05-10T09:12:03.993Z,100619.95
2023-05-10T09:14:32.065Z,100617.77
2023-05-10T09:16:59.268Z,100619.54
2023-05-10T09:19:26.393Z,100620.45
2023-05-10T09:21:53.422Z,100615.86
2023-05-10T09:24:20.636Z,100611.97
2023-05-10T09:26:51.544Z,100605.52
2023-05-10T09:29:19.005Z,100601.15
2023-05-10T09:31:57.652Z,100597.04
2023-05-10T09:34:33.327Z,100596.48
2023-05-10T09:37:02.621Z,100596.08
2023-05-10T09:39:33.927Z,100597.73
2023-05-10T09:42:04.996Z,100595.91
2023-05-10T09:44:34.094Z,100597.55
2023-05-10T09:47:04.842Z,100596.32
2023-05-10T09:49:31.936Z,100596.52
2023-05-10T09:52:07.345Z,100594.39
2023-05-10T09:54:35.781Z,100590.01
2023-05-10T09:57:03.173Z,100594.50
2023-05-10T09:59:30.806Z,100596.60
2023-05-10T10:01:59.508Z,100595.56
2023-05-10T10:04:27.038Z,100596.23
2023-05-10T10:07:05.354Z,100590.46
2023-05-10T10:09:33.442Z,100588.38
2023-05-10T10:12:02.019Z,100589.52
2023-05-10T10:14:30.848Z,100587.55
2023-05-10T10:17:07.625Z,100587.70
2023-05-10T10:19:38.281Z,100590.89
2023-05-10T10:22:06.621Z,100586.27
2023-05-10T10:24:33.972Z,100590.09
2023-05-10T10:27:15.931Z,100588.80
2023-05-10T10:30:02.011Z,100583.46
2023-05-10T10:32:47.961Z,100588.98
2023-05-10T10:35:16.864Z,100587.39
2023-05-10T10:37:46.587Z,100583.54
2023-05-10T10:40:34.458Z,100586.20
2023-05-10T10:43:25.551Z,100581.13
2023-05-10T10:46:15.740Z,100577.42
2023-05-10T10:48:49.577Z,100580.94
2023-05-10T10:51:16.670Z,100580.29
2023-05-10T10:53:44.737Z,100579.22
2023-05-10T10:56:14.827Z,100577.61
2023-05-10T10:58:42.591Z,100573.88
2023-05-10T11:01:18.064Z,100576.23
2023-05-10T11:04:06.794Z,100573.41
2023-05-10T11:06:36.277Z,100569.58
2023-05-10T11:09:09.214Z,100571.40
2023-05-10T11:11:37.427Z,100575.64
2023-05-10T11:14:07.390Z,100576.44
2023-05-10T11:16:45.386Z,100576.27
2023-05-10T11:19:14.722Z,100578.13
2023-05-10T11:22:07.268Z,100574.98
2023-05-10T11:24:34.967Z,100576.73
2023-05-10T11:27:04.191Z,100582.45
2023-05-10T11:29:31.409Z,100579.38
2023-05-10T11:32:00.501Z,100579.08
2023-05-10T11:34:34.894Z,100576.92
2023-05-10T11:37:02.788Z,100577.88
2023-05-10T11:39:31.540Z,100572.54
2023-05-10T11:41:59.498Z,100575.01
2023-05-10T11:44:33.770Z,100571.61
2023-05-10T11:47:02.431Z,100572.56
2023-05-10T11:49:29.782Z,100567.29
2023-05-10T11:52:10.145Z,100568.69
2023-05-10T11:54:37.327Z,100569.34
2023-05-10T11:57:05.339Z,100567.48
2023-05-10T11:59:32.632Z,100565.34
2023-05-10T12:02:00.087Z,100567.82
2023-05-10T12:04:28.987Z,100565.30
2023-05-10T12:06:56.694Z,100567.60
2023-05-10T12:12:00.267Z,100564.02
2023-05-10T12:14:27.511Z,100559.26
2023-05-10T12:16:54.656Z,100558.86
2023-05-10T12:19:22.380Z,100554.05
2023-05-10T12:21:50.115Z,100555.95
2023-05-10T12:24:19.107Z,100553.63
2023-05-10T12:26:49.701Z,100554.38
2023-05-10T12:29:19.097Z,100552.48
2023-05-10T12:31:55.121Z,100555.52
2023-05-10T12:34:32.459Z,100554.05
2023-05-10T12:37:00.257Z,100554.29
2023-05-10T12:39:27.558Z,100554.96
2023-05-10T12:41:54.598Z,100555.21
2023-05-10T12:44:21.939Z,100554.56
2023-05-10T12:46:49.037Z,100554.37
2023-05-10T12:49:16.156Z,100552.02
2023-05-10T12:51:43.410Z,100555.23
2023-05-10T12:54:10.878Z,100558.60
2023-05-10T12:56:38.259Z,100553.42
2023-05-10T12:59:05.591Z,100558.20
2023-05-10T13:01:33.080Z,100554.92
2023-05-10T13:04:01.428Z,100557.85
2023-05-10T13:06:28.652Z,100556.46
2023-05-10T13:08:55.888Z,100558.59
2023-05-10T13:11:22.989Z,100556.64
2023-05-10T13:13:50.041Z,100555.47
2023-05-10T13:16:17.118Z,100559.80
2023-05-10T13:18:44.386Z,100562.55
2023-05-10T13:21:12.601Z,100558.73
2023-05-10T13:23:39.774Z,100555.77
2023-05-10T13:26:06.949Z,100559.40
2023-05-10T13:28:34.016Z,100559.60
2023-05-10T13:31:01.309Z,100560.55
2023-05-10T13:33:28.489Z,100565.86
2023-05-10T13:35:55.962Z,100563.70
2023-05-10T13:38:23.138Z,100562.87
2023-05-10T13:40:53.994Z,100562.85
2023-05-10T13:43:21.534Z,100565.06
2023-05-10T13:45:48.716Z,100564.81
2023-05-10T13:48:16.261Z,100568.64
2023-05-10T13:50:44.227Z,100566.35
2023-05-10T13:53:11.339Z,100566.40
2023-05-10T13:55:38.515Z,100565.22
2023-05-10T13:58:06.061Z,100563.44
2023-05-10T14:00:33.330Z,100564.69
2023-05-10T14:03:00.794Z,100563.18
2023-05-10T14:05:28.401Z,100566.23
2023-05-10T14:07:56.100Z,100564.98
2023-05-10T14:10:23.327Z,100563.91
2023-05-10T14:12:51.161Z,100563.92
2023-05-10T14:15:18.574Z,100563.71
2023-05-10T14:17:46.182Z,100563.23
2023-05-10T14:20:13.483Z,100562.85
2023-05-10T14:22:41.569Z,100561.45
2023-05-10T14:25:09.345Z,100560.02
2023-05-10T14:27:36.627Z,100559.56
2023-05-10T14:30:03.909Z,100556.62
2023-05-10T14:32:33.225Z,100555.90
2023-05-10T14:35:01.319Z,100558.44
2023-05-10T14:37:28.883Z,100558.14
2023-05-10T14:39:55.996Z,100557.15
2023-05-10T14:42:23.517Z,100556.26
2023-05-10T14:44:51.000Z,100557.10
2023-05-10T14:47:18.006Z,100561.63
2023-05-10T14:49:45.076Z,100557.22
2023-05-10T14:52:13.416Z,100557.00
2023-05-10T14:54:41.493Z,100562.66
2023-05-10T14:57:08.756Z,100560.92
2023-05-10T14:59:36.817Z,100564.17
2023-05-10T15:02:05.887Z,100564.92
2023-05-10T15:04:33.549Z,100560.41
2023-05-10T15:07:01.766Z,100567.20
2023-05-10T15:09:28.961Z,100568.12
2023-05-10T15:11:57.024Z,100568.87
2023-05-10T15:14:24.483Z,100567.81
2023-05-10T15:16:52.021Z,100564.11
2023-05-10T15:19:19.047Z,100562.82
2023-05-10T15:21:46.209Z,100564.11
2023-05-10T15:24:13.520Z,100566.98
2023-05-10T15:26:40.541Z,100566.52
2023-05-10T15:29:07.579Z,100566.63
2023-05-10T15:31:37.746Z,100567.73
2023-05-10T15:34:04.889Z,100568.10
2023-05-10T15:36:34.300Z,100569.80
2023-05-10T15:39:01.404Z,100573.00
2023-05-10T15:41:29.295Z,100573.00
2023-05-10T15:43:56.772Z,100571.02
2023-05-10T15:46:23.929Z,100570.27
2023-05-10T15:48:51.113Z,100574.52
2023-05-10T15:51:20.195Z,100572.40
2023-05-10T15:54:05.198Z,100572.70
2023-05-10T15:56:34.704Z,100575.86
2023-05-10T15:59:02.502Z,100576.90
2023-05-10T16:01:31.001Z,100582.13
2023-05-10T16:03:58.112Z,100581.45
2023-05-10T16:06:25.203Z,100584.48
2023-05-10T16:08:54.132Z,100584.34
2023-05-10T16:11:22.182Z,100586.42
2023-05-10T16:13:49.516Z,100587.09
2023-05-10T16:16:17.099Z,100585.52
2023-05-10T16:18:44.377Z,100585.71
2023-05-10T16:21:11.928Z,100587.29
2023-05-10T16:23:39.503Z,100588.55
2023-05-10T16:26:07.193Z,100587.35
2023-05-10T16:28:34.324Z,100593.52
2023-05-10T16:31:01.535Z,100594.21
2023-05-10T16:33:29.012Z,100588.90
2023-05-10T16:35:56.592Z,100591.73
2023-05-10T16:38:23.707Z,100592.51
2023-05-10T16:40:50.819Z,100589.50
2023-05-10T16:43:18.243Z,100592.67
2023-05-10T16:45:45.366Z,100592.06
2023-05-10T16:48:12.571Z,100590.48
2023-05-10T16:50:39.659Z,100591.50
2023-05-10T16:53:06.869Z,100594.58
2023-05-10T16:55:34.437Z,100598.04
2023-05-10T16:58:03.092Z,100601.30
2023-05-10T17:00:30.307Z,100604.88
2023-05-10T17:02:57.541Z,100609.33
2023-05-10T17:05:24.811Z,100608.11
2023-05-10T17:07:51.912Z,100612.04
2023-05-10T17:10:19.201Z,100612.10
2023-05-10T17:12:46.591Z,100615.50
2023-05-10T17:15:13.780Z,100619.89
2023-05-10T17:17:41.305Z,100617.20
2023-05-10T17:20:09.353Z,100623.73
2023-05-10T17:22:36.894Z,100626.11
2023-05-10T17:25:04.444Z,100629.06
2023-05-10T17:27:31.663Z,100631.40
2023-05-10T17:29:59.389Z,100631.86
2023-05-10T17:32:26.736Z,100637.31
2023-05-10T17:34:53.818Z,100643.92
2023-05-10T17:37:21.091Z,100643.13
2023-05-10T17:39:48.125Z,100643.34
2023-05-10T17:42:17.833Z,100644.98
2023-05-10T17:44:45.310Z,100646.10
2023-05-10T17:47:12.422Z,100648.81
2023-05-10T17:49:40.123Z,100647.84
2023-05-10T17:52:07.723Z,100647.81
2023-05-10T17:54:34.812Z,100654.41
2023-05-10T17:57:02.318Z,100658.79
2023-05-10T17:59:29.608Z,100655.38
2023-05-10T18:01:56.830Z,100658.90
2023-05-10T18:04:23.984Z,100658.54
2023-05-10T18:06:56.327Z,100659.70
2023-05-10T18:09:23.740Z,100666.21
2023-05-10T18:11:50.808Z,100663.23
2023-05-10T18:14:31.971Z,100667.47
2023-05-10T18:17:03.618Z,100665.27
2023-05-10T18:19:30.880Z,100668.16
2023-05-10T18:21:57.949Z,100668.52
2023-05-10T18:24:37.543Z,100666.51
2023-05-10T18:27:05.970Z,100665.00
2023-05-10T18:29:33.165Z,100668.13
2023-05-10T18:32:00.308Z,100666.87
2023-05-10T18:34:27.484Z,100663.65
2023-05-10T18:36:54.789Z,100667.54
2023-05-10T18:39:22.020Z,100666.08
2023-05-10T18:41:50.378Z,100666.44
2023-05-10T18:44:19.137Z,100667.00
2023-05-10T18:46:46.675Z,100664.76
2023-05-10T18:49:13.864Z,100664.27
2023-05-10T18:51:41.023Z,100663.91
2023-05-10T18:54:08.126Z,100660.58
2023-05-10T18:56:35.324Z,100659.67
2023-05-10T18:59:04.247Z,100661.77
2023-05-10T19:01:31.530Z,100660.06
2023-05-10T19:03:59.181Z,100660.55
2023-05-10T19:06:26.394Z,100658.71
2023-05-10T19:08:53.567Z,100660.24
2023-05-10T19:11:22.055Z,100663.16
2023-05-10T19:13:49.167Z,100662.55
2023-05-10T19:16:20.097Z,100665.64
2023-05-10T19:18:47.261Z,100664.54
2023-05-10T19:21:16.137Z,100665.59
2023-05-10T19:23:43.995Z,100664.98
2023-05-10T19:26:12.079Z,100666.67
2023-05-10T19:28:39.123Z,100663.94
2023-05-10T19:31:07.391Z,100662.81
2023-05-10T19:33:34.650Z,100663.27
2023-05-10T19:36:01.952Z,100660.08
2023-05-10T19:38:29.184Z,100663.75
2023-05-10T19:41:00.213Z,100663.82
2023-05-10T19:43:28.747Z,100662.23
2023-05-10T19:45:59.378Z,100663.04
2023-05-10T19:48:27.534Z,100662.81
2023-05-10T19:50:59.359Z,100665.11
2023-05-10T19:53:28.219Z,100663.65
2023-05-10T19:55:56.451Z,100663.38
2023-05-10T19:58:23.836Z,100661.67
2023-05-10T20:00:54.066Z,100661.09
2023-05-10T20:03:21.216Z,100662.75
2023-05-10T20:05:48.349Z,100658.02
2023-05-10T20:08:15.471Z,100654.84
2023-05-10T20:10:42.739Z,100659.34
2023-05-10T20:13:09.993Z,100652.91
2023-05-10T20:15:37.172Z,100654.07
2023-05-10T20:18:04.506Z,100652.38
2023-05-10T20:20:31.942Z,100650.00
2023-05-10T20:22:58.945Z,100649.10
2023-05-10T20:25:26.125Z,100650.33
2023-05-10T20:27:53.368Z,100651.80
2023-05-10T20:30:20.788Z,100647.10
2023-05-10T20:32:48.190Z,100649.24
2023-05-10T20:35:15.540Z,100649.56
2023-05-10T20:37:42.677Z,100649.29
2023-05-10T20:40:10.085Z,100650.67
2023-05-10T20:42:37.256Z,100654.98
2023-05-10T20:45:04.862Z,100653.96
2023-05-10T20:47:32.782Z,100651.08
2023-05-10T20:49:59.861Z,100651.09
2023-05-10T20:52:26.987Z,100648.23
2023-05-10T20:54:54.071Z,100650.66
2023-05-10T20:57:21.111Z,100651.27
2023-05-10T20:59:50.528Z,100649.64
2023-05-10T21:02:17.919Z,100658.99
2023-05-10T21:04:45.513Z,100654.75
2023-05-10T21:07:12.587Z,100652.45
2023-05-10T21:09:39.586Z,100646.31
2023-05-10T21:12:07.003Z,100647.34
2023-05-10T21:14:35.457Z,100647.17
2023-05-10T21:17:02.568Z,100641.88
2023-05-10T21:19:29.608Z,100641.57
2023-05-10T21:21:57.729Z,100640.84
2023-05-10T21:24:24.789Z,100639.71
2023-05-10T21:26:52.301Z,100639.72
2023-05-10T21:29:19.471Z,100635.31
2023-05-10T21:31:46.540Z,100635.16
2023-05-10T21:34:14.259Z,100635.98
2023-05-10T21:36:41.399Z,100638.15
2023-05-10T21:39:08.519Z,100638.35
2023-05-10T21:41:35.702Z,100632.20
2023-05-10T21:44:03.096Z,100633.06
2023-05-10T21:46:30.220Z,100634.12
2023-05-10T21:48:57.615Z,100628.60
2023-05-10T21:51:24.654Z,100629.00
2023-05-10T21:53:51.690Z,100623.17
2023-05-10T21:56:18.836Z,100621.23
2023-05-10T21:58:45.994Z,100621.24
2023-05-10T22:01:15.138Z,100620.16
2023-05-10T22:03:42.494Z,100620.66
2023-05-10T22:06:09.687Z,100618.87
2023-05-10T22:08:36.741Z,100617.98
2023-05-10T22:11:03.898Z,100613.68
2023-05-10T22:13:31.170Z,100614.73
2023-05-10T22:15:58.247Z,100616.20
2023-05-10T22:18:25.454Z,100614.11
2023-05-10T22:20:52.668Z,100616.81
2023-05-10T22:23:19.767Z,100616.52
2023-05-10T22:25:46.952Z,100613.45
2023-05-10T22:28:14.013Z,100616.30
2023-05-10T22:30:42.688Z,100610.98
2023-05-10T22:33:09.894Z,100609.64
2023-05-10T22:35:36.967Z,100611.80
2023-05-10T22:38:04.181Z,100612.59
2023-05-10T22:40:31.340Z,100614.33
2023-05-10T22:42:58.358Z,100610.17
2023-05-10T22:45:25.937Z,100610.91
2023-05-10T22:47:53.158Z,100609.55
2023-05-10T22:50:21.746Z,100606.77
2023-05-10T22:52:48.840Z,100609.66
2023-05-10T22:55:16.097Z,100608.59
2023-05-10T22:57:43.336Z,100610.20
2023-05-10T23:00:11.058Z,100606.13
2023-05-10T23:02:38.330Z,100606.67
2023-05-10T23:05:06.054Z,100608.96
2023-05-10T23:07:33.166Z,100606.11
2023-05-10T23:10:00.217Z,100607.19
2023-05-10T23:12:27.276Z,100609.77
2023-05-10T23:14:55.115Z,100610.87
2023-05-10T23:17:22.192Z,100612.22
2023-05-10T23:19:49.194Z,100616.31
2023-05-10T23:22:16.346Z,100613.20
2023-05-10T23:24:43.444Z,100617.41
2023-05-10T23:27:11.606Z,100621.70
2023-05-10T23:29:38.682Z,100625.14
2023-05-10T23:32:06.086Z,100625.02
2023-05-10T23:34:33.384Z,100626.68
2023-05-10T23:37:00.453Z,100630.96
2023-05-10T23:39:27.678Z,100630.17
2023-05-10T23:41:55.147Z,100628.55
2023-05-10T23:44:22.257Z,100628.30
2023-05-10T23:46:49.306Z,100629.84
2023-05-10T23:49:17.461Z,100627.25
2023-05-10T23:51:44.474Z,100626.31
2023-05-10T23:54:11.531Z,100628.30
2023-05-10T23:56:38.619Z,100624.11
2023-05-10T23:59:08.595Z,100620.51
